createdAt,value
2018-08-04T00:01:16.708Z,2.07
2018-08-04T00:03:45.099Z,2.27
2018-08-04T00:06:13.925Z,2.20
2018-08-04T00:08:42.758Z,2.30
2018-08-04T00:11:11.649Z,2.10
2018-08-04T00:13:40.518Z,2.10
2018-08-04T00:16:09.348Z,2.27
2018-08-04T00:18:38.229Z,2.60
2018-08-04T00:21:07.113Z,2.53
2018-08-04T00:23:36.093Z,3.30
2018-08-04T00:26:04.924Z,2.50
2018-08-04T00:28:36.774Z,2.60
2018-08-04T00:31:05.653Z,1.77
2018-08-04T00:33:34.478Z,2.47
2018-08-04T00:36:03.316Z,2.30
2018-08-04T00:38:31.721Z,2.80
2018-08-04T00:41:00.515Z,2.67
2018-08-04T00:43:29.359Z,2.43
2018-08-04T00:45:58.254Z,3.40
2018-08-04T00:48:27.057Z,3.70
2018-08-04T00:50:55.884Z,3.20
2018-08-04T00:53:25.052Z,3.10
2018-08-04T00:55:53.892Z,2.13
2018-08-04T00:58:22.703Z,2.57
2018-08-04T01:00:51.696Z,3.17
2018-08-04T01:03:21.501Z,3.00
2018-08-04T01:05:49.902Z,3.20
2018-08-04T01:08:18.669Z,2.70
2018-08-04T01:10:47.581Z,2.13
2018-08-04T01:13:16.512Z,2.87
2018-08-04T01:15:45.358Z,3.30
2018-08-04T01:18:14.558Z,2.83
2018-08-04T01:20:43.405Z,2.90
2018-08-04T01:23:12.216Z,3.10
2018-08-04T01:25:41.074Z,3.53
2018-08-04T01:28:09.852Z,3.97
2018-08-04T01:30:38.748Z,4.20
2018-08-04T01:33:07.600Z,4.93
2018-08-04T01:35:36.372Z,4.53
2018-08-04T01:38:05.221Z,4.70
2018-08-04T01:40:34.070Z,4.50
2018-08-04T01:43:02.889Z,4.00
2018-08-04T01:45:31.687Z,4.03
2018-08-04T01:48:00.501Z,3.40
2018-08-04T01:50:28.947Z,4.00
2018-08-04T01:52:57.751Z,4.10
2018-08-04T01:55:26.635Z,3.97
2018-08-04T01:57:55.435Z,4.70
2018-08-04T02:00:24.692Z,4.77
2018-08-04T02:02:53.801Z,4.07
2018-08-04T02:05:22.650Z,4.70
2018-08-04T02:07:51.466Z,5.80
2018-08-04T02:10:20.270Z,5.27
2018-08-04T02:12:49.230Z,5.10
2018-08-04T02:15:18.052Z,5.83
2018-08-04T02:17:46.857Z,6.13
2018-08-04T02:20:15.734Z,5.90
2018-08-04T02:22:44.535Z,6.63
2018-08-04T02:25:13.352Z,5.17
2018-08-04T02:27:42.167Z,5.87
2018-08-04T02:30:10.993Z,5.73
2018-08-04T02:32:39.823Z,6.70
2018-08-04T02:35:08.666Z,5.17
2018-08-04T02:37:37.454Z,5.97
2018-08-04T02:40:06.804Z,6.70
2018-08-04T02:42:35.605Z,6.20
2018-08-04T02:45:04.880Z,6.47
2018-08-04T02:47:33.716Z,7.13
2018-08-04T02:50:02.513Z,6.53
2018-08-04T02:52:31.372Z,5.73
2018-08-04T02:55:00.216Z,6.47
2018-08-04T02:57:28.675Z,5.53
2018-08-04T02:59:57.513Z,6.90
2018-08-04T03:02:26.318Z,7.23
2018-08-04T03:04:55.170Z,5.97
2018-08-04T03:07:24.009Z,6.27
2018-08-04T03:09:52.884Z,7.27
2018-08-04T03:12:21.718Z,6.03
2018-08-04T03:14:50.533Z,6.07
2018-08-04T03:17:19.377Z,6.70
2018-08-04T03:19:48.209Z,6.60
2018-08-04T03:22:17.105Z,6.67
2018-08-04T03:24:45.937Z,6.80
2018-08-04T03:27:14.761Z,6.00
2018-08-04T03:29:43.594Z,5.93
2018-08-04T03:32:12.451Z,6.63
2018-08-04T03:34:41.232Z,6.40
2018-08-04T03:37:10.105Z,5.43
2018-08-04T03:39:38.961Z,6.50
2018-08-04T03:42:07.779Z,5.83
2018-08-04T03:44:36.656Z,6.20
2018-08-04T03:47:05.513Z,7.30
2018-08-04T03:49:34.312Z,6.20
2018-08-04T03:52:03.217Z,6.80
2018-08-04T03:54:32.010Z,7.50
2018-08-04T03:57:00.818Z,6.80
2018-08-04T03:59:29.249Z,7.10
2018-08-04T04:01:58.088Z,7.80
2018-08-04T04:04:26.977Z,7.50
2018-08-04T04:06:55.801Z,7.80
2018-08-04T04:09:24.621Z,7.70
2018-08-04T04:11:53.468Z,6.90
2018-08-04T04:14:22.270Z,7.43
2018-08-04T04:16:51.116Z,6.97
2018-08-04T04:19:19.497Z,7.47
2018-08-04T04:21:48.333Z,7.20
2018-08-04T04:24:17.216Z,6.00
2018-08-04T04:26:46.078Z,7.63
2018-08-04T04:29:14.978Z,6.80
2018-08-04T04:31:43.840Z,7.20
2018-08-04T04:34:12.248Z,6.30
2018-08-04T04:36:41.051Z,7.97
2018-08-04T04:39:11.089Z,7.07
2018-08-04T04:41:40.573Z,7.40
2018-08-04T04:44:09.819Z,7.20
2018-08-04T04:46:39.693Z,8.00
2018-08-04T04:49:11.902Z,8.53
2018-08-04T04:51:41.536Z,8.70
2018-08-04T04:54:10.671Z,7.87
2018-08-04T04:56:39.492Z,8.90
2018-08-04T04:59:07.916Z,8.67
2018-08-04T05:01:37.181Z,8.50
2018-08-04T05:04:06.053Z,8.93
2018-08-04T05:06:34.849Z,8.63
2018-08-04T05:09:04.260Z,9.40
2018-08-04T05:11:33.043Z,8.20
2018-08-04T05:14:01.875Z,8.70
2018-08-04T05:16:30.664Z,8.40
2018-08-04T05:18:59.523Z,9.80
2018-08-04T05:21:28.361Z,8.50
2018-08-04T05:23:57.305Z,8.13
2018-08-04T05:26:26.120Z,8.60
2018-08-04T05:28:54.913Z,8.27
2018-08-04T05:31:23.756Z,7.97
2018-08-04T05:33:53.056Z,7.60
2018-08-04T05:36:22.079Z,9.23
2018-08-04T05:38:50.917Z,7.33
2018-08-04T05:41:19.754Z,8.07
2018-08-04T05:43:48.661Z,7.83
2018-08-04T05:46:17.522Z,8.97
2018-08-04T05:48:46.301Z,8.23
2018-08-04T05:51:15.129Z,9.30
2018-08-04T05:53:43.948Z,8.00
2018-08-04T05:56:12.790Z,9.00
2018-08-04T05:58:41.635Z,8.77
2018-08-04T06:01:10.465Z,8.70
2018-08-04T06:03:39.476Z,11.47
2018-08-04T06:06:08.558Z,8.40
2018-08-04T06:08:37.580Z,8.30
2018-08-04T06:11:06.639Z,7.70
2018-08-04T06:13:35.438Z,9.93
2018-08-04T06:16:04.296Z,8.73
2018-08-04T06:18:33.098Z,8.60
2018-08-04T06:21:01.938Z,8.27
2018-08-04T06:23:31.106Z,8.30
2018-08-04T06:25:59.921Z,8.57
2018-08-04T06:28:28.726Z,7.70
2018-08-04T06:30:57.516Z,7.47
2018-08-04T06:33:26.316Z,8.63
2018-08-04T06:35:55.191Z,8.20
2018-08-04T06:38:24.056Z,9.30
2018-08-04T06:40:52.875Z,8.33
2018-08-04T06:43:21.728Z,7.43
2018-08-04T06:45:50.524Z,7.47
2018-08-04T06:48:18.949Z,7.60
2018-08-04T06:50:47.753Z,7.20
2018-08-04T06:53:16.614Z,6.57
2018-08-04T06:55:45.912Z,6.60
2018-08-04T06:58:14.739Z,6.20
2018-08-04T07:00:43.565Z,6.20
2018-08-04T07:03:12.372Z,5.73
2018-08-04T07:05:41.175Z,6.33
2018-08-04T07:08:10.028Z,6.17
2018-08-04T07:10:38.804Z,5.53
2018-08-04T07:13:07.607Z,5.60
2018-08-04T07:15:36.518Z,5.83
2018-08-04T07:18:05.409Z,5.33
2018-08-04T07:20:34.220Z,5.20
2018-08-04T07:23:03.072Z,4.83
2018-08-04T07:25:31.895Z,4.10
2018-08-04T07:28:00.717Z,4.20
2018-08-04T07:30:29.554Z,3.30
2018-08-04T07:32:58.485Z,3.80
2018-08-04T07:35:27.292Z,3.83
2018-08-04T07:37:56.136Z,3.80
2018-08-04T07:40:25.000Z,3.67
2018-08-04T07:42:53.783Z,4.20
2018-08-04T07:45:22.601Z,4.57
2018-08-04T07:47:51.419Z,3.57
2018-08-04T07:50:20.248Z,2.90
2018-08-04T07:52:49.103Z,3.00
2018-08-04T07:55:17.900Z,3.40
2018-08-04T07:57:47.452Z,3.20
2018-08-04T08:00:16.348Z,2.53
2018-08-04T08:02:45.218Z,2.63
2018-08-04T08:05:14.505Z,2.70
2018-08-04T08:07:43.387Z,3.03
2018-08-04T08:10:12.276Z,2.30
2018-08-04T08:12:41.120Z,2.50
2018-08-04T08:15:10.306Z,2.63
2018-08-04T08:17:39.126Z,2.10
2018-08-04T08:20:07.982Z,2.33
2018-08-04T08:22:43.889Z,2.00
2018-08-04T08:25:12.753Z,1.70
2018-08-04T08:27:41.685Z,2.10
2018-08-04T08:30:14.301Z,2.20
2018-08-04T08:32:43.232Z,2.00
2018-08-04T08:35:12.378Z,2.43
2018-08-04T08:37:41.681Z,2.53
2018-08-04T08:40:10.608Z,2.20
2018-08-04T08:42:39.491Z,1.70
2018-08-04T08:45:09.592Z,1.47
2018-08-04T08:47:38.762Z,1.70
2018-08-04T08:50:10.043Z,2.20
2018-08-04T08:52:38.869Z,1.60
2018-08-04T08:55:08.344Z,1.73
2018-08-04T08:57:37.188Z,1.90
2018-08-04T09:00:08.608Z,1.90
2018-08-04T09:02:37.737Z,1.47
2018-08-04T09:05:06.934Z,1.57
2018-08-04T09:07:36.420Z,1.70
2018-08-04T09:10:07.889Z,1.73
2018-08-04T09:12:36.709Z,1.77
2018-08-04T09:15:06.105Z,1.30
2018-08-04T09:17:34.961Z,1.40
2018-08-04T09:20:04.097Z,1.83
2018-08-04T09:22:32.936Z,1.60
2018-08-04T09:25:01.870Z,1.50
2018-08-04T09:27:30.665Z,1.60
2018-08-04T09:29:59.510Z,1.70
2018-08-04T09:32:28.360Z,1.47
2018-08-04T09:34:57.209Z,1.63
2018-08-04T09:37:26.026Z,1.40
2018-08-04T09:39:54.921Z,1.40
2018-08-04T09:42:23.786Z,1.57
2018-08-04T09:44:52.593Z,1.90
2018-08-04T09:47:21.009Z,2.23
2018-08-04T09:49:49.852Z,1.50
2018-08-04T09:52:18.378Z,1.83
2018-08-04T09:54:47.209Z,2.10
2018-08-04T09:57:16.014Z,1.67
2018-08-04T09:59:44.885Z,1.63
2018-08-04T10:02:14.468Z,2.37
2018-08-04T10:04:43.246Z,1.40
2018-08-04T10:07:12.247Z,1.77
2018-08-04T10:09:41.070Z,1.30
2018-08-04T10:12:09.980Z,1.53
2018-08-04T10:14:38.809Z,1.70
2018-08-04T10:17:07.790Z,1.60
2018-08-04T10:19:36.616Z,1.80
2018-08-04T10:22:05.891Z,1.60
2018-08-04T10:24:34.696Z,1.67
2018-08-04T10:27:03.496Z,1.30
2018-08-04T10:29:32.306Z,1.50
2018-08-04T10:32:01.466Z,1.30
2018-08-04T10:34:30.720Z,1.70
2018-08-04T10:37:00.016Z,1.73
2018-08-04T10:39:28.848Z,1.30
2018-08-04T10:41:57.664Z,1.47
2018-08-04T10:44:26.042Z,2.10
2018-08-04T10:46:54.902Z,1.17
2018-08-04T10:49:23.728Z,1.43
2018-08-04T10:51:52.561Z,1.47
2018-08-04T10:54:21.473Z,1.73
2018-08-04T10:56:50.369Z,1.40
2018-08-04T10:59:19.199Z,1.50
2018-08-04T11:01:48.397Z,1.63
2018-08-04T11:04:17.236Z,1.40
2018-08-04T11:06:46.051Z,1.63
2018-08-04T11:09:14.951Z,1.90
2018-08-04T11:11:43.922Z,1.40
2018-08-04T11:14:12.713Z,1.50
2018-08-04T11:16:41.946Z,1.40
2018-08-04T11:19:10.746Z,1.80
2018-08-04T11:21:39.554Z,1.90
2018-08-04T11:24:08.496Z,1.67
2018-08-04T11:26:37.246Z,1.97
2018-08-04T11:29:06.437Z,1.30
2018-08-04T11:31:35.240Z,1.20
2018-08-04T11:34:04.472Z,1.13
2018-08-04T11:36:33.313Z,1.30
2018-08-04T11:39:02.135Z,1.50
2018-08-04T11:41:30.964Z,1.30
2018-08-04T11:43:59.836Z,1.10
2018-08-04T11:46:28.636Z,1.77
2018-08-04T11:48:57.465Z,1.63
2018-08-04T11:51:26.260Z,1.53
2018-08-04T11:53:55.163Z,1.33
2018-08-04T11:56:23.941Z,1.60
2018-08-04T11:58:52.765Z,1.43
2018-08-04T12:01:21.574Z,1.43
2018-08-04T12:03:50.377Z,1.27
2018-08-04T12:06:19.285Z,1.40
2018-08-04T12:08:48.092Z,1.57
2018-08-04T12:11:17.037Z,1.20
2018-08-04T12:13:45.809Z,1.40
2018-08-04T12:16:14.636Z,1.33
2018-08-04T12:18:43.537Z,1.30
2018-08-04T12:21:12.337Z,2.10
2018-08-04T12:23:41.144Z,1.53
2018-08-04T12:26:10.044Z,1.60
2018-08-04T12:28:38.889Z,1.73
2018-08-04T12:31:07.820Z,1.40
2018-08-04T12:33:36.633Z,1.50
2018-08-04T12:36:05.729Z,1.60
2018-08-04T12:38:34.555Z,1.73
2018-08-04T12:41:03.384Z,1.60
2018-08-04T12:43:32.238Z,1.87
2018-08-04T12:46:01.106Z,1.70
2018-08-04T12:48:30.476Z,1.60
2018-08-04T12:51:01.147Z,1.47
2018-08-04T12:53:29.969Z,1.93
2018-08-04T12:55:59.753Z,1.80
2018-08-04T12:58:28.176Z,1.70
2018-08-04T13:00:57.033Z,1.77
2018-08-04T13:03:25.857Z,1.93
2018-08-04T13:05:54.657Z,1.70
2018-08-04T13:08:23.515Z,1.40
2018-08-04T13:10:52.428Z,1.80
2018-08-04T13:13:21.220Z,1.57
2018-08-04T13:15:50.050Z,2.00
2018-08-04T13:18:18.904Z,1.77
2018-08-04T13:20:47.791Z,1.90
2018-08-04T13:23:16.616Z,2.17
2018-08-04T13:25:45.467Z,2.10
2018-08-04T13:28:14.612Z,1.70
2018-08-04T13:30:43.022Z,1.90
2018-08-04T13:33:11.896Z,1.73
2018-08-04T13:35:40.741Z,2.00
2018-08-04T13:38:09.575Z,1.70
2018-08-04T13:40:38.401Z,1.87
2018-08-04T13:43:07.220Z,2.50
2018-08-04T13:45:36.045Z,2.33
2018-08-04T13:48:04.861Z,1.70
2018-08-04T13:50:33.779Z,2.07
2018-08-04T13:53:02.575Z,1.90
2018-08-04T13:55:31.369Z,1.90
2018-08-04T13:58:00.319Z,2.20
2018-08-04T14:00:30.542Z,1.80
2018-08-04T14:02:59.614Z,1.83
2018-08-04T14:05:28.404Z,1.60
2018-08-04T14:07:57.343Z,1.80
2018-08-04T14:10:26.465Z,2.03
2018-08-04T14:12:56.850Z,1.43
2018-08-04T14:15:26.173Z,2.00
2018-08-04T14:17:55.351Z,1.90
2018-08-04T14:20:24.487Z,1.90
2018-08-04T14:22:53.327Z,1.70
2018-08-04T14:25:22.125Z,1.80
2018-08-04T14:27:50.986Z,2.10
2018-08-04T14:30:19.876Z,1.73
2018-08-04T14:32:48.707Z,2.37
2018-08-04T14:35:17.105Z,1.83
2018-08-04T14:37:45.967Z,1.93
2018-08-04T14:40:14.791Z,1.73
2018-08-04T14:42:43.727Z,1.70
2018-08-04T14:45:12.597Z,1.57
2018-08-04T14:47:41.489Z,1.83
2018-08-04T14:50:10.338Z,1.73
2018-08-04T14:52:39.165Z,1.90
2018-08-04T14:55:08.467Z,1.53
2018-08-04T14:57:37.355Z,1.60
2018-08-04T15:00:06.492Z,2.30
2018-08-04T15:02:35.315Z,2.20
2018-08-04T15:05:04.275Z,1.87
2018-08-04T15:07:33.148Z,1.70
2018-08-04T15:10:02.058Z,1.87
2018-08-04T15:12:30.930Z,2.00
2018-08-04T15:14:59.794Z,2.00
2018-08-04T15:17:28.618Z,2.73
2018-08-04T15:19:57.541Z,2.50
2018-08-04T15:22:26.344Z,1.90
2018-08-04T15:24:55.163Z,1.60
2018-08-04T15:27:24.005Z,1.80
2018-08-04T15:29:52.868Z,1.90
2018-08-04T15:32:21.649Z,3.00
2018-08-04T15:34:50.600Z,2.20
2018-08-04T15:37:19.493Z,2.10
2018-08-04T15:39:48.326Z,1.67
2018-08-04T15:42:17.246Z,1.83
2018-08-04T15:44:46.114Z,2.10
2018-08-04T15:47:15.323Z,2.00
2018-08-04T15:49:44.138Z,1.90
2018-08-04T15:52:12.922Z,2.27
2018-08-04T15:54:41.729Z,1.90
2018-08-04T15:57:10.620Z,2.20
2018-08-04T15:59:39.459Z,1.90
2018-08-04T16:02:08.724Z,2.10
2018-08-04T16:04:37.570Z,1.67
2018-08-04T16:07:06.375Z,2.30
2018-08-04T16:09:35.212Z,1.90
2018-08-04T16:12:04.073Z,2.00
2018-08-04T16:14:33.013Z,2.40
2018-08-04T16:17:01.848Z,2.53
2018-08-04T16:19:30.648Z,1.80
2018-08-04T16:21:59.506Z,2.20
2018-08-04T16:24:28.384Z,1.83
2018-08-04T16:26:57.184Z,1.50
2018-08-04T16:29:26.000Z,1.80
2018-08-04T16:31:55.238Z,2.23
2018-08-04T16:34:24.076Z,1.83
2018-08-04T16:36:52.905Z,2.23
2018-08-04T16:39:21.738Z,1.80
2018-08-04T16:41:50.888Z,1.73
2018-08-04T16:44:20.100Z,2.10
2018-08-04T16:46:48.911Z,1.70
2018-08-04T16:49:17.728Z,1.57
2018-08-04T16:51:46.608Z,2.03
2018-08-04T16:54:15.454Z,2.17
2018-08-04T16:56:44.352Z,1.93
2018-08-04T16:59:13.579Z,1.70
2018-08-04T17:01:42.378Z,1.70
2018-08-04T17:04:11.201Z,1.77
2018-08-04T17:06:40.114Z,1.50
2018-08-04T17:09:11.078Z,1.80
2018-08-04T17:11:39.883Z,1.87
2018-08-04T17:14:09.257Z,1.40
2018-08-04T17:16:38.091Z,1.80
2018-08-04T17:19:06.991Z,1.43
2018-08-04T17:21:35.925Z,1.30
2018-08-04T17:24:04.780Z,1.40
2018-08-04T17:26:35.049Z,2.97
2018-08-04T17:29:04.161Z,1.70
2018-08-04T17:31:33.432Z,1.27
2018-08-04T17:34:03.623Z,1.73
2018-08-04T17:36:33.070Z,1.30
2018-08-04T17:39:02.591Z,1.57
2018-08-04T17:41:31.682Z,1.50
2018-08-04T17:44:01.348Z,1.30
2018-08-04T17:46:30.509Z,1.30
2018-08-04T17:48:59.590Z,1.30
2018-08-04T17:51:28.862Z,1.67
2018-08-04T17:53:58.661Z,1.50
2018-08-04T17:56:28.159Z,1.50
2018-08-04T17:58:57.213Z,1.27
2018-08-04T18:01:26.335Z,1.40
2018-08-04T18:03:55.657Z,1.10
2018-08-04T18:06:24.843Z,1.57
2018-08-04T18:08:54.208Z,1.60
2018-08-04T18:11:23.626Z,1.30
2018-08-04T18:13:52.806Z,1.67
2018-08-04T18:16:22.250Z,1.73
2018-08-04T18:18:51.137Z,1.50
2018-08-04T18:21:19.943Z,1.40
2018-08-04T18:23:48.748Z,1.40
2018-08-04T18:26:17.555Z,1.40
2018-08-04T18:28:46.424Z,1.47
2018-08-04T18:31:15.281Z,1.23
2018-08-04T18:33:44.103Z,1.10
2018-08-04T18:36:12.990Z,1.90
2018-08-04T18:38:41.842Z,1.77
2018-08-04T18:43:43.592Z,1.53
2018-08-04T18:46:12.412Z,1.50
2018-08-04T18:48:41.256Z,2.30
2018-08-04T18:51:10.049Z,2.43
2018-08-04T18:53:38.975Z,3.20
2018-08-04T18:56:07.817Z,1.40
2018-08-04T18:58:36.621Z,1.77
2018-08-04T19:01:05.453Z,1.77
2018-08-04T19:03:34.283Z,2.67
2018-08-04T19:06:03.137Z,1.47
2018-08-04T19:08:31.965Z,1.37
2018-08-04T19:11:01.186Z,1.93
2018-08-04T19:13:30.353Z,1.90
2018-08-04T19:15:58.853Z,2.23
2018-08-04T19:18:27.701Z,2.80
2018-08-04T19:20:56.662Z,4.20
2018-08-04T19:23:25.800Z,3.60
2018-08-04T19:25:54.897Z,2.27
2018-08-04T19:28:23.578Z,1.97
2018-08-04T19:30:52.652Z,1.83
2018-08-04T19:33:21.543Z,1.60
2018-08-04T19:35:50.491Z,2.00
2018-08-04T19:38:20.694Z,4.30
2018-08-04T19:40:49.865Z,5.10
2018-08-04T19:43:18.927Z,2.87
2018-08-04T19:45:50.759Z,3.07
2018-08-04T19:48:19.895Z,2.53
2018-08-04T19:50:48.742Z,2.33
2018-08-04T19:53:17.812Z,2.00
2018-08-04T19:55:47.136Z,3.10
2018-08-04T19:58:16.300Z,2.33
2018-08-04T20:00:45.594Z,1.80
2018-08-04T20:03:14.519Z,2.57
2018-08-04T20:05:43.972Z,2.17
2018-08-04T20:08:13.061Z,1.70
2018-08-04T20:10:42.289Z,1.87
2018-08-04T20:13:10.929Z,1.90
2018-08-04T20:15:40.040Z,2.57
2018-08-04T20:18:10.261Z,2.23
2018-08-04T20:20:40.316Z,2.77
2018-08-04T20:23:09.772Z,2.20
2018-08-04T20:25:38.820Z,2.03
2018-08-04T20:28:07.968Z,2.87
2018-08-04T20:30:37.125Z,2.60
2018-08-04T20:33:06.273Z,2.50
2018-08-04T20:35:35.407Z,2.57
2018-08-04T20:38:04.605Z,3.10
2018-08-04T20:40:33.772Z,3.07
2018-08-04T20:43:02.889Z,2.53
2018-08-04T20:45:32.045Z,3.13
2018-08-04T20:48:01.147Z,2.90
2018-08-04T20:50:30.187Z,2.93
2018-08-04T20:52:59.416Z,3.10
2018-08-04T20:55:29.164Z,3.50
2018-08-04T20:57:58.352Z,4.93
2018-08-04T21:00:26.941Z,4.57
2018-08-04T21:02:55.646Z,3.07
2018-08-04T21:05:24.720Z,3.20
2018-08-04T21:07:53.911Z,2.43
2018-08-04T21:10:23.282Z,2.90
2018-08-04T21:12:52.404Z,2.70
2018-08-04T21:15:21.016Z,2.90
2018-08-04T21:17:50.228Z,2.30
2018-08-04T21:20:19.460Z,3.10
2018-08-04T21:22:48.693Z,3.23
2018-08-04T21:25:17.119Z,2.93
2018-08-04T21:27:46.461Z,3.07
2018-08-04T21:30:15.109Z,2.50
2018-08-04T21:32:44.456Z,4.17
2018-08-04T21:35:13.756Z,3.70
2018-08-04T21:37:43.179Z,3.80
2018-08-04T21:40:12.680Z,3.20
2018-08-04T21:42:41.952Z,3.70
2018-08-04T21:45:10.922Z,3.23
2018-08-04T21:47:41.039Z,3.17
2018-08-04T21:50:10.269Z,2.47
2018-08-04T21:52:39.389Z,3.37
2018-08-04T21:55:08.887Z,3.43
2018-08-04T21:57:38.139Z,3.53
2018-08-04T22:00:10.816Z,4.10
2018-08-04T22:02:44.818Z,4.27
2018-08-04T22:05:14.130Z,4.60
2018-08-04T22:07:48.875Z,4.70
2018-08-04T22:10:17.493Z,5.00
2018-08-04T22:12:46.774Z,4.83
2018-08-04T22:15:16.504Z,5.97
2018-08-04T22:17:45.437Z,5.30
2018-08-04T22:20:15.801Z,4.23
2018-08-04T22:22:45.096Z,4.43
2018-08-04T22:25:16.508Z,5.23
2018-08-04T22:27:45.639Z,6.13
2018-08-04T22:30:16.020Z,5.80
2018-08-04T22:32:45.756Z,6.33
2018-08-04T22:35:14.950Z,7.73
2018-08-04T22:37:43.775Z,9.10
2018-08-04T22:40:14.149Z,10.00
2018-08-04T22:42:43.657Z,11.00
2018-08-04T22:46:23.303Z,7.60
2018-08-04T22:48:53.400Z,6.87
2018-08-04T22:51:27.437Z,9.20
2018-08-04T22:53:56.609Z,9.90
2018-08-04T22:56:26.224Z,7.67
2018-08-04T22:58:55.590Z,9.03
2018-08-04T23:01:24.793Z,8.60
2018-08-04T23:03:54.626Z,7.10
2018-08-04T23:06:23.760Z,5.43
2018-08-04T23:08:52.775Z,5.87
2018-08-04T23:11:22.040Z,5.90
2018-08-04T23:13:51.118Z,4.57
2018-08-04T23:16:20.382Z,5.20
2018-08-04T23:18:49.613Z,5.10
2018-08-04T23:21:18.911Z,4.60
2018-08-04T23:23:48.042Z,4.37
2018-08-04T23:26:17.383Z,4.90
2018-08-04T23:28:46.585Z,4.73
2018-08-04T23:31:15.730Z,4.50
2018-08-04T23:33:44.330Z,4.17
2018-08-04T23:36:13.493Z,4.40
2018-08-04T23:38:42.696Z,5.13
2018-08-04T23:41:11.752Z,11.30
2018-08-04T23:43:41.009Z,8.30
2018-08-04T23:46:09.829Z,8.23
2018-08-04T23:48:38.668Z,8.33
2018-08-04T23:51:07.088Z,9.70
2018-08-04T23:53:35.900Z,12.53
2018-08-04T23:56:04.804Z,12.60
2018-08-04T23:58:33.647Z,10.27
